createdAt,value
2019-01-13T00:02:22.231Z,99584.50
2019-01-13T00:04:52.966Z,99578.83
2019-01-13T00:07:23.802Z,99581.02
2019-01-13T00:09:54.592Z,99574.12
2019-01-13T00:12:25.364Z,99583.89
2019-01-13T00:14:56.165Z,99577.16
2019-01-13T00:17:26.916Z,99580.82
2019-01-13T00:19:57.714Z,99580.06
2019-01-13T00:22:28.436Z,99583.13
2019-01-13T00:24:59.245Z,99581.67
2019-01-13T00:27:30.060Z,99573.70
2019-01-13T00:30:00.841Z,99578.73
2019-01-13T00:32:31.652Z,99583.16
2019-01-13T00:35:02.456Z,99577.77
2019-01-13T00:37:33.317Z,99573.87
2019-01-13T00:40:04.325Z,99572.66
2019-01-13T00:42:35.137Z,99565.92
2019-01-13T00:45:07.024Z,99562.01
2019-01-13T00:47:37.793Z,99561.10
2019-01-13T00:50:12.174Z,99562.77
2019-01-13T00:52:43.184Z,99559.42
2019-01-13T00:55:14.642Z,99558.08
2019-01-13T00:57:45.431Z,99556.73
2019-01-13T01:00:26.405Z,99549.58
2019-01-13T01:02:53.280Z,99553.05
2019-01-13T01:05:24.278Z,99554.40
2019-01-13T01:07:55.349Z,99554.83
2019-01-13T01:10:26.166Z,99548.37
2019-01-13T01:12:57.075Z,99545.72
2019-01-13T01:15:27.942Z,99539.52
2019-01-13T01:17:58.681Z,99533.27
2019-01-13T01:20:29.473Z,99539.56
2019-01-13T01:23:00.349Z,99543.45
2019-01-13T01:25:31.111Z,99545.68
2019-01-13T01:28:01.844Z,99545.68
2019-01-13T01:30:33.610Z,99558.58
2019-01-13T01:33:04.581Z,99540.86
2019-01-13T01:35:35.354Z,99549.59
2019-01-13T01:38:06.309Z,99544.28
2019-01-13T01:40:37.092Z,99540.41
2019-01-13T01:43:07.899Z,99544.77
2019-01-13T01:45:38.695Z,99536.83
2019-01-13T01:48:09.435Z,99538.67
2019-01-13T01:50:40.189Z,99540.70
2019-01-13T01:53:10.971Z,99534.25
2019-01-13T01:55:41.795Z,99531.36
2019-01-13T01:58:12.584Z,99533.61
2019-01-13T02:00:43.401Z,99523.23
2019-01-13T02:03:14.167Z,99525.06
2019-01-13T02:05:44.958Z,99529.09
2019-01-13T02:08:15.709Z,99538.25
2019-01-13T02:10:46.472Z,99534.19
2019-01-13T02:13:17.260Z,99534.67
2019-01-13T02:15:47.997Z,99534.53
2019-01-13T02:18:18.769Z,99530.27
2019-01-13T02:20:49.496Z,99532.09
2019-01-13T02:23:20.304Z,99535.34
2019-01-13T02:25:51.085Z,99536.07
2019-01-13T02:28:21.844Z,99531.18
2019-01-13T02:30:52.759Z,99525.30
2019-01-13T02:33:23.652Z,99521.55
2019-01-13T02:35:57.275Z,99522.35
2019-01-13T02:38:28.106Z,99521.80
2019-01-13T02:40:58.995Z,99522.63
2019-01-13T02:43:30.836Z,99530.78
2019-01-13T02:46:01.670Z,99528.61
2019-01-13T02:48:32.404Z,99538.97
2019-01-13T02:51:03.432Z,99541.32
2019-01-13T02:53:34.276Z,99535.58
2019-01-13T02:56:05.117Z,99535.13
2019-01-13T02:58:35.971Z,99538.10
2019-01-13T03:01:06.881Z,99547.71
2019-01-13T03:03:37.762Z,99542.59
2019-01-13T03:06:08.766Z,99542.29
2019-01-13T03:08:39.536Z,99539.33
2019-01-13T03:11:11.612Z,99534.93
2019-01-13T03:13:42.580Z,99539.22
2019-01-13T03:16:13.452Z,99530.98
2019-01-13T03:18:46.361Z,99525.44
2019-01-13T03:21:17.201Z,99527.69
2019-01-13T03:23:47.983Z,99535.03
2019-01-13T03:26:18.712Z,99529.28
2019-01-13T03:28:49.534Z,99526.73
2019-01-13T03:31:20.327Z,99525.25
2019-01-13T03:33:51.110Z,99517.09
2019-01-13T03:36:21.868Z,99516.67
2019-01-13T03:38:52.730Z,99518.55
2019-01-13T03:41:23.660Z,99527.06
2019-01-13T03:43:59.547Z,99524.41
2019-01-13T03:46:30.448Z,99524.88
2019-01-13T03:49:01.300Z,99519.64
2019-01-13T03:51:33.786Z,99517.17
2019-01-13T03:54:06.311Z,99513.25
2019-01-13T03:56:37.174Z,99519.50
2019-01-13T03:59:08.039Z,99512.49
2019-01-13T04:01:38.804Z,99513.91
2019-01-13T04:04:09.647Z,99505.31
2019-01-13T04:06:42.314Z,99504.09
2019-01-13T04:09:15.177Z,99507.69
2019-01-13T04:11:45.965Z,99500.64
2019-01-13T04:14:16.771Z,99501.48
2019-01-13T04:16:47.647Z,99498.56
2019-01-13T04:19:18.453Z,99496.97
2019-01-13T04:21:49.270Z,99496.13
2019-01-13T04:24:20.087Z,99505.94
2019-01-13T04:26:50.871Z,99500.16
2019-01-13T04:29:21.776Z,99499.35
2019-01-13T04:31:52.619Z,99498.44
2019-01-13T04:34:23.481Z,99496.66
2019-01-13T04:36:54.288Z,99491.83
2019-01-13T04:39:25.139Z,99493.61
2019-01-13T04:41:56.013Z,99493.39
2019-01-13T04:44:26.852Z,99494.06
2019-01-13T04:46:57.616Z,99488.08
2019-01-13T04:49:28.447Z,99488.47
2019-01-13T04:51:59.193Z,99484.29
2019-01-13T04:54:30.027Z,99491.36
2019-01-13T04:57:02.459Z,99491.19
2019-01-13T04:59:33.281Z,99489.23
2019-01-13T05:02:04.019Z,99488.66
2019-01-13T05:04:35.119Z,99485.52
2019-01-13T05:07:05.993Z,99487.50
2019-01-13T05:09:36.810Z,99480.64
2019-01-13T05:12:07.683Z,99480.98
2019-01-13T05:14:38.555Z,99490.24
2019-01-13T05:17:09.393Z,99481.38
2019-01-13T05:19:40.306Z,99480.94
2019-01-13T05:22:11.137Z,99479.64
2019-01-13T05:24:41.951Z,99481.66
2019-01-13T05:27:12.899Z,99475.69
2019-01-13T05:29:43.729Z,99475.62
2019-01-13T05:32:14.767Z,99466.41
2019-01-13T05:34:45.600Z,99459.42
2019-01-13T05:37:16.388Z,99471.77
2019-01-13T05:39:47.157Z,99461.03
2019-01-13T05:42:17.958Z,99467.65
2019-01-13T05:44:48.835Z,99460.98
2019-01-13T05:47:19.667Z,99466.23
2019-01-13T05:49:50.543Z,99455.55
2019-01-13T05:52:21.363Z,99455.33
2019-01-13T05:54:52.086Z,99452.45
2019-01-13T05:57:22.829Z,99464.58
2019-01-13T05:59:53.655Z,99461.03
2019-01-13T06:02:24.464Z,99459.87
2019-01-13T06:04:55.315Z,99461.48
2019-01-13T06:07:26.195Z,99467.02
2019-01-13T06:09:57.469Z,99452.34
2019-01-13T06:12:28.407Z,99459.69
2019-01-13T06:14:59.280Z,99454.91
2019-01-13T06:17:30.166Z,99452.28
2019-01-13T06:20:00.967Z,99461.19
2019-01-13T06:22:31.742Z,99452.71
2019-01-13T06:25:02.627Z,99450.27
2019-01-13T06:27:33.454Z,99454.61
2019-01-13T06:30:04.775Z,99449.45
2019-01-13T06:32:35.885Z,99448.25
2019-01-13T06:35:07.711Z,99439.06
2019-01-13T06:37:38.494Z,99447.25
2019-01-13T06:40:13.597Z,99446.33
2019-01-13T06:42:44.594Z,99447.33
2019-01-13T06:45:21.724Z,99448.70
2019-01-13T06:47:52.591Z,99452.48
2019-01-13T06:50:23.348Z,99449.74
2019-01-13T06:52:54.195Z,99456.25
2019-01-13T06:55:25.078Z,99449.14
2019-01-13T06:57:55.830Z,99449.02
2019-01-13T07:00:28.747Z,99465.12
2019-01-13T07:03:00.486Z,99452.79
2019-01-13T07:05:31.307Z,99452.86
2019-01-13T07:08:02.057Z,99450.43
2019-01-13T07:10:32.808Z,99448.38
2019-01-13T07:13:03.628Z,99445.55
2019-01-13T07:15:34.426Z,99443.05
2019-01-13T07:18:05.238Z,99438.66
2019-01-13T07:20:36.049Z,99441.95
2019-01-13T07:23:06.858Z,99437.53
2019-01-13T07:25:37.698Z,99445.80
2019-01-13T07:28:10.610Z,99442.39
2019-01-13T07:30:41.387Z,99423.45
2019-01-13T07:33:12.207Z,99419.49
2019-01-13T07:35:42.978Z,99417.12
2019-01-13T07:38:13.810Z,99415.83
2019-01-13T07:40:44.562Z,99419.49
2019-01-13T07:43:15.367Z,99423.45
2019-01-13T07:45:46.120Z,99417.70
2019-01-13T07:48:16.909Z,99419.16
2019-01-13T07:50:49.570Z,99416.14
2019-01-13T07:53:20.769Z,99420.36
2019-01-13T07:55:51.552Z,99421.34
2019-01-13T07:58:22.352Z,99426.61
2019-01-13T08:00:53.192Z,99413.93
2019-01-13T08:03:25.793Z,99403.67
2019-01-13T08:05:57.010Z,99395.30
2019-01-13T08:08:27.897Z,99387.23
2019-01-13T08:10:58.914Z,99388.18
2019-01-13T08:13:29.863Z,99379.58
2019-01-13T08:16:00.639Z,99367.64
2019-01-13T08:18:31.633Z,99367.09
2019-01-13T08:21:02.442Z,99364.38
2019-01-13T08:23:33.287Z,99368.66
2019-01-13T08:26:04.122Z,99350.21
2019-01-13T08:28:34.866Z,99351.47
2019-01-13T08:31:05.802Z,99349.64
2019-01-13T08:33:36.585Z,99340.75
2019-01-13T08:36:07.460Z,99336.51
2019-01-13T08:38:38.191Z,99343.08
2019-01-13T08:41:08.993Z,99344.36
2019-01-13T08:43:40.550Z,99332.16
2019-01-13T08:46:41.750Z,99328.19
2019-01-13T08:49:12.811Z,99327.77
2019-01-13T08:51:43.630Z,99327.65
2019-01-13T08:54:14.626Z,99324.19
2019-01-13T08:56:45.457Z,99326.52
2019-01-13T08:59:16.249Z,99321.53
2019-01-13T09:01:47.333Z,99317.56
2019-01-13T09:04:18.311Z,99307.69
2019-01-13T09:06:49.358Z,99303.69
2019-01-13T09:09:20.298Z,99303.05
2019-01-13T09:11:51.183Z,99303.77
2019-01-13T09:14:22.173Z,99303.61
2019-01-13T09:16:52.949Z,99293.93
2019-01-13T09:19:23.785Z,99285.15
2019-01-13T09:21:54.613Z,99279.05
2019-01-13T09:24:25.481Z,99276.76
2019-01-13T09:26:56.245Z,99270.64
2019-01-13T09:29:27.004Z,99262.37
2019-01-13T09:31:57.807Z,99263.11
2019-01-13T09:34:28.657Z,99260.77
2019-01-13T09:36:59.669Z,99259.81
2019-01-13T09:39:30.537Z,99254.66
2019-01-13T09:42:01.479Z,99250.77
2019-01-13T09:44:32.493Z,99237.34
2019-01-13T09:47:03.385Z,99245.03
2019-01-13T09:49:34.145Z,99241.16
2019-01-13T09:52:05.085Z,99224.45
2019-01-13T09:54:35.907Z,99217.95
2019-01-13T09:57:06.659Z,99221.76
2019-01-13T09:59:38.945Z,99206.13
2019-01-13T10:02:09.765Z,99199.01
2019-01-13T10:04:40.597Z,99189.61
2019-01-13T10:07:11.403Z,99188.19
2019-01-13T10:09:42.285Z,99174.39
2019-01-13T10:12:13.313Z,99180.20
2019-01-13T10:14:44.083Z,99179.48
2019-01-13T10:17:14.976Z,99173.91
2019-01-13T10:19:45.796Z,99169.08
2019-01-13T10:22:16.621Z,99158.30
2019-01-13T10:24:48.541Z,99143.36
2019-01-13T10:27:19.413Z,99137.72
2019-01-13T10:29:50.285Z,99129.57
2019-01-13T10:32:23.167Z,99121.62
2019-01-13T10:35:02.618Z,99112.20
2019-01-13T10:37:37.965Z,99105.02
2019-01-13T10:40:14.805Z,99098.40
2019-01-13T10:42:45.755Z,99095.71
2019-01-13T10:45:18.969Z,99087.73
2019-01-13T10:47:57.901Z,99084.37
2019-01-13T10:50:36.368Z,99087.31
2019-01-13T10:53:11.490Z,99080.56
2019-01-13T10:55:45.275Z,99068.26
2019-01-13T10:58:16.194Z,99069.69
2019-01-13T11:00:51.223Z,99053.38
2019-01-13T11:03:25.608Z,99051.97
2019-01-13T11:05:56.529Z,99041.95
2019-01-13T11:08:27.377Z,99034.84
2019-01-13T11:10:58.221Z,99029.92
2019-01-13T11:13:28.974Z,99020.09
2019-01-13T11:16:02.897Z,99014.92
2019-01-13T11:18:35.456Z,99009.75
2019-01-13T11:21:08.069Z,99009.17
2019-01-13T11:23:43.640Z,98996.34
2019-01-13T11:26:14.541Z,98996.13
2019-01-13T11:28:45.328Z,98987.49
2019-01-13T11:31:18.727Z,98973.78
2019-01-13T11:33:51.197Z,98975.02
2019-01-13T11:36:25.256Z,98969.08
2019-01-13T11:38:56.173Z,98958.58
2019-01-13T11:41:27.073Z,98953.94
2019-01-13T11:43:59.428Z,98944.22
2019-01-13T11:46:30.299Z,98935.63
2019-01-13T11:49:01.111Z,98926.93
2019-01-13T11:51:32.867Z,98925.09
2019-01-13T11:54:03.715Z,98905.81
2019-01-13T11:56:34.488Z,98907.34
2019-01-13T11:59:06.806Z,98892.19
2019-01-13T12:01:37.777Z,98887.14
2019-01-13T12:04:08.963Z,98890.15
2019-01-13T12:06:39.740Z,98879.09
2019-01-13T12:09:10.728Z,98871.95
2019-01-13T12:11:41.640Z,98859.83
2019-01-13T12:14:12.413Z,98856.75
2019-01-13T12:16:43.300Z,98849.03
2019-01-13T12:19:14.085Z,98831.27
2019-01-13T12:21:44.969Z,98825.53
2019-01-13T12:24:15.774Z,98817.79
2019-01-13T12:26:46.630Z,98807.95
2019-01-13T12:29:17.584Z,98794.31
2019-01-13T12:31:48.700Z,98784.88
2019-01-13T12:34:19.628Z,98780.25
2019-01-13T12:36:50.561Z,98770.47
2019-01-13T12:39:23.448Z,98755.42
2019-01-13T12:41:54.350Z,98744.33
2019-01-13T12:44:25.214Z,98733.56
2019-01-13T12:46:56.272Z,98717.09
2019-01-13T12:49:27.222Z,98721.58
2019-01-13T12:51:58.176Z,98714.41
2019-01-13T12:54:29.156Z,98700.30
2019-01-13T12:57:00.025Z,98694.11
2019-01-13T12:59:30.855Z,98681.31
2019-01-13T13:02:01.712Z,98680.07
2019-01-13T13:04:32.518Z,98663.66
2019-01-13T13:07:03.347Z,98661.08
2019-01-13T13:09:34.137Z,98652.87
2019-01-13T13:12:05.084Z,98645.89
2019-01-13T13:14:35.896Z,98644.17
2019-01-13T13:17:06.915Z,98628.05
2019-01-13T13:19:37.847Z,98630.58
2019-01-13T13:22:08.874Z,98623.13
2019-01-13T13:24:39.795Z,98607.14
2019-01-13T13:27:10.653Z,98607.74
2019-01-13T13:29:41.523Z,98595.82
2019-01-13T13:32:12.338Z,98582.50
2019-01-13T13:34:43.476Z,98582.16
2019-01-13T13:37:14.449Z,98566.64
2019-01-13T13:39:45.587Z,98560.52
2019-01-13T13:42:16.808Z,98552.02
2019-01-13T13:44:47.859Z,98543.20
2019-01-13T13:47:18.728Z,98532.52
2019-01-13T13:49:49.535Z,98533.27
2019-01-13T13:52:20.361Z,98534.94
2019-01-13T13:55:19.145Z,98525.17
2019-01-13T14:00:46.244Z,98508.39
2019-01-13T14:03:17.186Z,98504.66
2019-01-13T14:06:47.550Z,98511.23
2019-01-13T14:09:35.651Z,98507.59
2019-01-13T14:12:06.824Z,98499.47
2019-01-13T14:14:37.626Z,98490.32
2019-01-13T14:17:08.481Z,98487.43
2019-01-13T14:19:39.368Z,98483.48
2019-01-13T14:22:10.326Z,98473.89
2019-01-13T14:24:41.170Z,98464.66
2019-01-13T14:27:11.950Z,98475.20
2019-01-13T14:29:42.860Z,98466.57
2019-01-13T14:32:18.966Z,98462.17
2019-01-13T14:34:52.327Z,98462.17
2019-01-13T14:37:27.562Z,98456.06
2019-01-13T14:40:03.617Z,98450.25
2019-01-13T14:42:38.560Z,98457.94
2019-01-13T14:45:20.391Z,98444.34
2019-01-13T14:47:57.186Z,98441.77
2019-01-13T14:50:36.887Z,98437.27
2019-01-13T14:53:15.096Z,98431.91
2019-01-13T14:55:51.454Z,98426.31
2019-01-13T14:58:36.711Z,98425.40
2019-01-13T15:01:09.034Z,98428.83
2019-01-13T15:03:47.106Z,98412.77
2019-01-13T15:06:21.586Z,98409.58
2019-01-13T15:08:52.546Z,98402.70
2019-01-13T15:11:23.551Z,98403.16
2019-01-13T15:13:54.382Z,98397.66
2019-01-13T15:16:25.442Z,98393.00
2019-01-13T15:18:56.336Z,98395.69
2019-01-13T15:21:27.251Z,98388.26
2019-01-13T15:23:58.155Z,98394.06
2019-01-13T15:26:28.950Z,98390.12
2019-01-13T15:28:59.804Z,98382.67
2019-01-13T15:31:30.687Z,98379.90
2019-01-13T15:34:07.216Z,98378.95
2019-01-13T15:36:38.219Z,98374.33
2019-01-13T15:39:12.160Z,98372.95
2019-01-13T15:41:45.689Z,98361.64
2019-01-13T15:44:18.766Z,98363.61
2019-01-13T15:46:53.866Z,98343.09
2019-01-13T15:49:27.836Z,98341.33
2019-01-13T15:52:01.679Z,98345.73
2019-01-13T15:54:36.722Z,98337.20
2019-01-13T15:57:11.086Z,98334.06
2019-01-13T15:59:46.394Z,98336.41
2019-01-13T16:02:22.884Z,98318.75
2019-01-13T16:04:58.482Z,98326.75
2019-01-13T16:07:34.884Z,98323.40
2019-01-13T16:10:13.443Z,98319.92
2019-01-13T16:12:48.575Z,98316.78
2019-01-13T16:15:23.483Z,98308.55
2019-01-13T16:17:59.476Z,98313.63
2019-01-13T16:20:45.008Z,98316.51
2019-01-13T16:23:19.747Z,98298.95
2019-01-13T16:25:53.430Z,98297.88
2019-01-13T16:28:24.389Z,98292.78
2019-01-13T16:30:55.176Z,98283.12
2019-01-13T16:33:25.992Z,98283.23
2019-01-13T16:35:59.256Z,98278.72
2019-01-13T16:38:30.113Z,98256.64
2019-01-13T16:41:01.093Z,98252.86
2019-01-13T16:43:33.369Z,98242.34
2019-01-13T16:46:04.462Z,98231.66
2019-01-13T16:48:41.597Z,98230.41
2019-01-13T16:51:40.386Z,98222.45
2019-01-13T17:01:11.543Z,98180.17
2019-01-13T17:03:16.686Z,98162.91
2019-01-13T17:05:55.364Z,98177.97
2019-01-13T17:08:33.522Z,98193.52
2019-01-13T17:11:08.618Z,98183.03
2019-01-13T17:13:45.544Z,98099.62
2019-01-13T17:16:19.475Z,98176.42
2019-01-13T17:19:06.730Z,98168.47
2019-01-13T17:21:43.789Z,98172.50
2019-01-13T17:24:24.012Z,98153.55
2019-01-13T17:27:02.432Z,98148.69
2019-01-13T17:29:41.214Z,98148.30
2019-01-13T17:32:18.677Z,98135.59
2019-01-13T17:34:54.085Z,98124.61
2019-01-13T17:37:32.235Z,98102.79
2019-01-13T17:40:07.652Z,98103.45
2019-01-13T17:42:44.098Z,98098.85
2019-01-13T17:45:25.529Z,98088.56
2019-01-13T17:48:04.092Z,98083.51
2019-01-13T17:50:39.469Z,98080.02
2019-01-13T17:53:23.334Z,98067.80
2019-01-13T17:55:59.133Z,98068.83
2019-01-13T17:58:54.329Z,98064.17
2019-01-13T18:01:38.098Z,98066.41
2019-01-13T18:04:13.325Z,98054.95
2019-01-13T18:06:52.546Z,98053.95
2019-01-13T18:09:28.787Z,97966.63
2019-01-13T18:12:04.081Z,98041.47
2019-01-13T18:14:39.312Z,98037.31
2019-01-13T18:17:14.681Z,98029.09
2019-01-13T18:20:45.409Z,98023.16
2019-01-13T18:22:41.966Z,98029.56
2019-01-13T18:25:30.914Z,98020.13
2019-01-13T18:28:03.584Z,98019.49
2019-01-13T18:30:44.284Z,98007.97
2019-01-13T18:33:14.837Z,97998.97
2019-01-13T18:35:48.263Z,97984.75
2019-01-13T18:38:26.501Z,97979.16
2019-01-13T18:41:01.018Z,97977.00
2019-01-13T18:43:36.094Z,97967.64
2019-01-13T18:46:11.138Z,97957.33
2019-01-13T18:48:44.976Z,97948.52
2019-01-13T18:51:20.373Z,97941.41
2019-01-13T18:53:56.566Z,97929.09
2019-01-13T18:56:32.010Z,97926.52
2019-01-13T18:59:06.442Z,97936.52
2019-01-13T19:01:42.428Z,97921.72
2019-01-13T19:04:17.927Z,97939.92
2019-01-13T19:06:53.931Z,97933.91
2019-01-13T19:09:27.533Z,97934.63
2019-01-13T19:12:02.181Z,97941.59
2019-01-13T19:14:52.061Z,97935.14
2019-01-13T19:17:33.545Z,97929.84
2019-01-13T19:20:23.066Z,97938.04
2019-01-13T19:23:13.082Z,97929.84
2019-01-13T19:25:56.072Z,97928.00
2019-01-13T19:28:34.062Z,97940.64
2019-01-13T19:31:11.313Z,97943.61
2019-01-13T19:33:49.883Z,97957.75
2019-01-13T19:36:27.166Z,97969.38
2019-01-13T19:39:04.662Z,97980.45
2019-01-13T19:41:35.712Z,98011.51
2019-01-13T19:44:06.888Z,97991.80
2019-01-13T19:46:37.811Z,97949.28
2019-01-13T19:49:10.146Z,97971.59
2019-01-13T19:51:41.017Z,97911.02
2019-01-13T19:54:11.833Z,97971.44
2019-01-13T19:56:44.460Z,97957.20
2019-01-13T19:59:15.318Z,97950.41
2019-01-13T20:01:46.174Z,97971.00
2019-01-13T20:04:17.052Z,97983.81
2019-01-13T20:06:48.036Z,97962.59
2019-01-13T20:09:19.313Z,97988.31
2019-01-13T20:11:50.125Z,97976.48
2019-01-13T20:14:23.602Z,97988.70
2019-01-13T20:16:54.476Z,97984.77
2019-01-13T20:19:25.330Z,97989.75
2019-01-13T20:21:56.300Z,97999.88
2019-01-13T20:24:28.655Z,97999.48
2019-01-13T20:26:59.590Z,98003.19
2019-01-13T20:29:30.480Z,98011.92
2019-01-13T20:32:01.308Z,98008.31
2019-01-13T20:34:33.155Z,98002.92
2019-01-13T20:37:07.785Z,98014.35
2019-01-13T20:39:38.550Z,98015.60
2019-01-13T20:42:09.564Z,98006.30
2019-01-13T20:44:40.481Z,98008.47
2019-01-13T20:47:12.140Z,98015.60
2019-01-13T20:49:44.364Z,98010.24
2019-01-13T20:52:18.822Z,98020.30
2019-01-13T20:54:49.995Z,98017.91
2019-01-13T20:57:21.832Z,98018.39
2019-01-13T20:59:53.446Z,98021.16
2019-01-13T21:02:25.442Z,98008.80
2019-01-13T21:04:56.256Z,98016.61
2019-01-13T21:07:32.133Z,98015.76
2019-01-13T21:10:03.096Z,98015.76
2019-01-13T21:12:34.696Z,98020.23
2019-01-13T21:15:08.068Z,98025.42
2019-01-13T21:17:38.812Z,98032.52
2019-01-13T21:20:12.436Z,98032.95
2019-01-13T21:22:43.463Z,98029.20
2019-01-13T21:25:16.296Z,98035.37
2019-01-13T21:27:47.757Z,98039.85
2019-01-13T21:30:31.695Z,98043.92
2019-01-13T21:33:02.600Z,98040.05
2019-01-13T21:35:34.380Z,98032.88
2019-01-13T21:38:22.335Z,98030.06
2019-01-13T21:40:53.309Z,98026.58
2019-01-13T21:43:34.267Z,98028.58
2019-01-13T21:46:07.635Z,98028.05
2019-01-13T21:48:40.506Z,98040.20
2019-01-13T21:51:12.799Z,98034.30
2019-01-13T21:53:45.851Z,98024.83
2019-01-13T21:56:20.983Z,98030.61
2019-01-13T21:58:51.819Z,98021.78
2019-01-13T22:01:22.712Z,98023.55
2019-01-13T22:03:56.061Z,98023.09
2019-01-13T22:06:28.035Z,98027.03
2019-01-13T22:08:58.887Z,98028.09
2019-01-13T22:11:32.541Z,98033.44
2019-01-13T22:14:06.435Z,98040.87
2019-01-13T22:16:40.947Z,98034.00
2019-01-13T22:19:11.836Z,98031.64
2019-01-13T22:21:45.167Z,98038.67
2019-01-13T22:24:16.003Z,98029.80
2019-01-13T22:26:49.292Z,98062.59
2019-01-13T22:29:22.311Z,98053.45
2019-01-13T22:31:54.387Z,98050.72
2019-01-13T22:34:27.461Z,98055.88
2019-01-13T22:37:02.776Z,98054.06
2019-01-13T22:39:46.118Z,98050.45
2019-01-13T22:42:18.351Z,98055.23
2019-01-13T22:44:49.307Z,98051.90
2019-01-13T22:47:21.258Z,98052.88
2019-01-13T22:49:54.979Z,98061.48
2019-01-13T22:52:29.499Z,98064.58
2019-01-13T22:55:01.732Z,98064.12
2019-01-13T22:57:34.585Z,98073.50
2019-01-13T23:00:22.674Z,98066.41
2019-01-13T23:02:53.809Z,98077.51
2019-01-13T23:05:26.043Z,98078.47
2019-01-13T23:07:59.110Z,98074.92
2019-01-13T23:10:31.551Z,98070.98
2019-01-13T23:13:02.352Z,98061.00
2019-01-13T23:15:33.190Z,98065.60
2019-01-13T23:18:04.142Z,98074.17
2019-01-13T23:20:35.138Z,98074.97
2019-01-13T23:23:06.165Z,98076.22
2019-01-13T23:25:37.074Z,98068.73
2019-01-13T23:28:07.842Z,98064.20
2019-01-13T23:30:38.642Z,98064.55
2019-01-13T23:33:09.518Z,98060.58
2019-01-13T23:35:40.662Z,98066.52
2019-01-13T23:38:11.624Z,98054.39
2019-01-13T23:40:44.918Z,98085.28
2019-01-13T23:43:15.883Z,98062.90
2019-01-13T23:45:48.036Z,98056.91
2019-01-13T23:48:22.252Z,98066.94
2019-01-13T23:50:53.394Z,98073.84
2019-01-13T23:53:29.933Z,98057.61
2019-01-13T23:56:02.842Z,98064.68
2019-01-13T23:58:37.142Z,98063.13
